createdAt,value
2022-12-22T00:03:34.160Z,10.68
2022-12-22T00:09:15.303Z,10.60
2022-12-22T00:15:13.280Z,10.55
2022-12-22T00:21:11.377Z,10.56
2022-12-22T00:27:10.190Z,10.62
2022-12-22T00:33:09.303Z,10.62
2022-12-22T00:39:07.674Z,10.75
2022-12-22T00:45:05.946Z,10.20
2022-12-22T00:51:04.165Z,8.07
2022-12-22T00:57:02.340Z,9.10
2022-12-22T01:03:00.916Z,9.93
2022-12-22T01:09:00.417Z,10.33
2022-12-22T01:14:58.438Z,10.20
2022-12-22T01:20:56.423Z,10.14
2022-12-22T01:26:55.037Z,10.29
2022-12-22T01:32:53.211Z,10.56
2022-12-22T01:38:51.513Z,10.81
2022-12-22T01:44:50.173Z,11.01
2022-12-22T01:50:49.982Z,11.31
2022-12-22T01:56:48.245Z,11.48
2022-12-22T02:02:46.448Z,11.81
2022-12-22T02:08:46.766Z,11.99
2022-12-22T02:15:05.680Z,12.32
2022-12-22T02:21:04.929Z,12.52
2022-12-22T02:27:09.355Z,12.88
2022-12-22T02:33:10.115Z,11.66
2022-12-22T02:39:08.959Z,9.69
2022-12-22T02:45:07.204Z,10.61
2022-12-22T02:51:07.832Z,11.80
2022-12-22T02:57:06.005Z,12.16
2022-12-22T03:03:04.514Z,12.52
2022-12-22T03:09:03.182Z,12.68
2022-12-22T03:15:01.881Z,12.72
2022-12-22T03:21:00.450Z,12.77
2022-12-22T03:26:42.201Z,12.80
2022-12-22T03:32:23.432Z,12.12
2022-12-22T03:37:47.583Z,10.14
2022-12-22T03:43:46.193Z,8.85
2022-12-22T03:49:27.309Z,8.14
2022-12-22T03:55:09.199Z,9.01
2022-12-22T04:00:33.449Z,11.31
2022-12-22T04:05:57.568Z,12.54
2022-12-22T04:11:39.124Z,13.27
2022-12-22T04:17:03.149Z,13.68
2022-12-22T04:22:43.873Z,13.94
2022-12-22T04:28:25.633Z,14.21
2022-12-22T04:34:07.647Z,13.60
2022-12-22T04:39:31.540Z,11.51
2022-12-22T04:44:55.976Z,10.14
2022-12-22T04:50:19.546Z,9.34
2022-12-22T04:56:01.450Z,8.76
2022-12-22T05:01:42.680Z,8.37
2022-12-22T05:07:25.265Z,9.34
2022-12-22T05:12:58.096Z,11.75
2022-12-22T05:18:39.520Z,13.05
2022-12-22T05:24:20.437Z,13.86
2022-12-22T05:29:44.087Z,14.39
2022-12-22T05:35:26.306Z,13.76
2022-12-22T05:41:08.366Z,11.74
2022-12-22T05:46:32.195Z,10.32
2022-12-22T05:51:56.271Z,9.35
2022-12-22T05:57:19.815Z,8.66
2022-12-22T06:03:01.070Z,8.17
2022-12-22T06:08:42.773Z,9.02
2022-12-22T06:14:24.898Z,11.53
2022-12-22T06:19:48.650Z,12.86
2022-12-22T06:25:30.131Z,13.67
2022-12-22T06:31:11.346Z,14.15
2022-12-22T06:36:35.160Z,14.34
2022-12-22T06:42:17.120Z,13.67
2022-12-22T06:47:41.360Z,11.32
2022-12-22T06:53:22.311Z,9.76
2022-12-22T06:58:47.459Z,8.85
2022-12-22T07:04:30.151Z,8.27
2022-12-22T07:10:11.490Z,9.03
2022-12-22T07:15:36.527Z,11.31
2022-12-22T07:21:01.666Z,12.54
2022-12-22T07:26:25.281Z,13.22
2022-12-22T07:32:06.635Z,13.70
2022-12-22T07:37:49.570Z,14.19
2022-12-22T07:43:30.854Z,13.83
2022-12-22T07:49:30.633Z,11.88
2022-12-22T07:55:12.048Z,10.51
2022-12-22T08:00:35.922Z,9.63
2022-12-22T08:06:00.219Z,8.95
2022-12-22T08:11:24.066Z,9.51
2022-12-22T08:17:05.471Z,11.83
2022-12-22T08:22:47.265Z,13.09
2022-12-22T08:28:28.994Z,13.85
2022-12-22T08:33:52.761Z,14.34
2022-12-22T08:39:34.745Z,14.67
2022-12-22T08:45:15.984Z,14.76
2022-12-22T08:50:39.818Z,14.15
2022-12-22T08:56:05.096Z,12.30
2022-12-22T09:01:29.812Z,11.03
2022-12-22T09:07:11.349Z,10.13
2022-12-22T09:12:52.618Z,9.55
2022-12-22T09:18:33.892Z,10.36
2022-12-22T09:24:15.024Z,12.56
2022-12-22T09:29:40.100Z,13.61
2022-12-22T09:35:03.968Z,14.31
2022-12-22T09:40:28.011Z,14.68
2022-12-22T09:46:20.569Z,14.87
2022-12-22T09:52:02.443Z,14.63
2022-12-22T09:57:43.787Z,12.75
2022-12-22T10:03:25.799Z,11.25
2022-12-22T10:08:50.162Z,11.78
2022-12-22T10:14:39.059Z,13.14
2022-12-22T10:20:25.653Z,13.45
2022-12-22T10:32:03.488Z,13.82
2022-12-22T10:37:45.546Z,13.89
2022-12-22T10:43:29.059Z,13.93
2022-12-22T10:48:53.034Z,14.14
2022-12-22T10:54:36.381Z,14.38
2022-12-22T11:00:23.771Z,13.84
2022-12-22T11:05:48.001Z,12.04
2022-12-22T11:11:14.278Z,12.47
2022-12-22T11:16:42.409Z,13.79
2022-12-22T11:22:19.668Z,14.47
2022-12-22T11:28:10.826Z,14.96
2022-12-22T11:33:55.180Z,14.00
2022-12-22T11:39:41.284Z,12.35
2022-12-22T11:45:43.051Z,13.34
2022-12-22T11:51:34.403Z,14.22
2022-12-22T11:57:15.736Z,14.16
2022-12-22T12:02:39.841Z,12.80
2022-12-22T12:08:09.771Z,13.62
2022-12-22T12:13:37.614Z,14.14
2022-12-22T12:19:08.698Z,13.81
2022-12-22T12:25:01.415Z,12.81
2022-12-22T12:30:58.301Z,13.96
2022-12-22T12:36:59.606Z,14.00
2022-12-22T12:42:47.112Z,12.64
2022-12-22T12:48:28.947Z,13.63
2022-12-22T12:54:11.839Z,13.89
2022-12-22T12:59:54.749Z,12.51
2022-12-22T13:05:51.402Z,13.27
2022-12-22T13:17:42.777Z,14.00
2022-12-22T13:23:24.650Z,12.64
2022-12-22T13:28:51.048Z,13.30
2022-12-22T13:34:34.571Z,13.87
2022-12-22T13:54:09.708Z,13.25
2022-12-22T13:59:36.278Z,13.71
2022-12-22T14:05:08.558Z,13.86
2022-12-22T14:10:50.556Z,13.87
2022-12-22T14:16:17.361Z,13.79
2022-12-22T14:22:06.433Z,13.90
2022-12-22T14:27:48.321Z,14.10
2022-12-22T14:33:19.820Z,14.19
2022-12-22T14:39:08.945Z,14.14
2022-12-22T14:44:51.607Z,14.04
2022-12-22T14:50:18.455Z,14.08
2022-12-22T14:55:43.166Z,14.08
2022-12-22T15:01:28.997Z,14.01
2022-12-22T15:07:54.314Z,13.99
2022-12-22T15:13:24.618Z,13.89
2022-12-22T15:19:06.159Z,13.87
2022-12-22T15:24:48.235Z,13.83
2022-12-22T15:30:12.167Z,13.85
2022-12-22T15:35:36.831Z,13.90
2022-12-22T15:41:01.407Z,13.94
2022-12-22T15:46:43.784Z,13.96
2022-12-22T15:52:24.565Z,14.07
2022-12-22T15:58:05.892Z,14.08
2022-12-22T16:03:47.035Z,13.76
2022-12-22T16:09:14.645Z,12.44
2022-12-22T16:14:42.396Z,13.31
2022-12-22T16:20:10.883Z,13.98
2022-12-22T16:25:56.908Z,14.13
2022-12-22T16:31:23.683Z,14.30
2022-12-22T16:37:04.997Z,14.28
2022-12-22T16:49:04.185Z,14.09
2022-12-22T16:54:52.283Z,14.04
2022-12-22T17:00:18.000Z,14.14
2022-12-22T17:06:00.261Z,13.99
2022-12-22T17:11:24.514Z,13.90
2022-12-22T17:17:05.462Z,13.71
2022-12-22T17:22:47.831Z,13.56
2022-12-22T17:28:12.142Z,13.51
2022-12-22T17:33:36.538Z,13.45
2022-12-22T17:39:00.550Z,13.41
2022-12-22T17:44:42.309Z,13.14
2022-12-22T17:50:23.130Z,13.10
2022-12-22T17:56:09.175Z,13.13
2022-12-22T18:01:51.315Z,13.11
2022-12-22T18:07:16.257Z,12.99
2022-12-22T18:12:39.811Z,12.97
2022-12-22T18:18:04.875Z,12.95
2022-12-22T18:23:50.450Z,12.87
2022-12-22T18:29:34.040Z,12.76
2022-12-22T18:34:59.498Z,12.86
2022-12-22T18:40:49.405Z,12.89
2022-12-22T18:46:30.889Z,12.99
2022-12-22T18:52:15.997Z,12.99
2022-12-22T18:57:57.279Z,13.00
2022-12-22T19:03:25.622Z,13.07
2022-12-22T19:09:11.578Z,13.11
2022-12-22T19:14:53.684Z,13.11
2022-12-22T19:20:18.519Z,13.07
2022-12-22T19:25:42.252Z,13.20
2022-12-22T19:31:27.142Z,13.21
2022-12-22T19:37:08.946Z,13.18
2022-12-22T19:42:55.418Z,13.06
2022-12-22T19:48:19.997Z,13.02
2022-12-22T19:53:44.699Z,13.05
2022-12-22T19:59:23.647Z,13.04
2022-12-22T20:05:15.202Z,12.97
2022-12-22T20:10:59.026Z,12.88
2022-12-22T20:16:23.629Z,12.88
2022-12-22T20:22:05.002Z,12.76
2022-12-22T20:27:30.611Z,12.80
2022-12-22T20:33:12.484Z,12.91
2022-12-22T20:38:53.869Z,13.06
2022-12-22T20:44:18.060Z,13.15
2022-12-22T20:49:43.279Z,13.15
2022-12-22T20:55:07.621Z,13.06
2022-12-22T21:00:48.890Z,12.90
2022-12-22T21:06:35.632Z,12.79
2022-12-22T21:12:17.314Z,12.79
2022-12-22T21:17:59.217Z,12.80
2022-12-22T21:23:23.540Z,12.87
2022-12-22T21:29:06.640Z,12.83
2022-12-22T21:34:30.584Z,12.65
2022-12-22T21:40:22.113Z,12.68
2022-12-22T21:46:03.196Z,12.69
2022-12-22T21:51:26.920Z,12.63
2022-12-22T21:57:11.198Z,12.58
2022-12-22T22:02:52.370Z,12.55
2022-12-22T22:08:16.686Z,12.50
2022-12-22T22:13:40.500Z,12.46
2022-12-22T22:19:04.209Z,12.40
2022-12-22T22:24:45.913Z,12.35
2022-12-22T22:30:28.127Z,12.43
2022-12-22T22:36:09.732Z,12.54
2022-12-22T22:41:39.091Z,12.57
2022-12-22T22:47:22.557Z,12.64
2022-12-22T22:53:07.927Z,12.59
2022-12-22T22:58:32.949Z,12.59
2022-12-22T23:04:14.817Z,12.53
2022-12-22T23:09:55.796Z,12.46
2022-12-22T23:15:19.640Z,12.47
2022-12-22T23:20:46.057Z,12.50
2022-12-22T23:26:09.530Z,12.51
2022-12-22T23:31:50.546Z,12.61
2022-12-22T23:37:32.406Z,12.77
2022-12-22T23:43:13.811Z,12.81
2022-12-22T23:48:56.411Z,12.93
2022-12-22T23:54:20.170Z,12.95
2022-12-22T23:59:43.886Z,13.04
